createdAt,value
2018-12-19T00:01:58.375Z,96411.86
2018-12-19T00:04:25.767Z,96422.17
2018-12-19T00:06:53.443Z,96426.52
2018-12-19T00:09:20.864Z,96409.52
2018-12-19T00:11:48.272Z,96404.78
2018-12-19T00:14:16.028Z,96409.61
2018-12-19T00:16:44.346Z,96400.62
2018-12-19T00:19:11.763Z,96404.98
2018-12-19T00:21:39.424Z,96403.91
2018-12-19T00:24:06.841Z,96406.22
2018-12-19T00:26:34.236Z,96401.34
2018-12-19T00:29:01.991Z,96409.63
2018-12-19T00:31:29.411Z,96407.12
2018-12-19T00:33:57.573Z,96414.09
2018-12-19T00:36:25.187Z,96418.44
2018-12-19T00:38:52.587Z,96408.31
2018-12-19T00:41:20.016Z,96415.08
2018-12-19T00:43:47.651Z,96412.13
2018-12-19T00:46:15.061Z,96413.37
2018-12-19T00:48:42.475Z,96414.38
2018-12-19T00:51:10.047Z,96412.00
2018-12-19T00:53:37.455Z,96415.47
2018-12-19T00:56:04.936Z,96421.65
2018-12-19T00:58:32.403Z,96419.58
2018-12-19T01:00:59.816Z,96423.96
2018-12-19T01:03:27.216Z,96420.17
2018-12-19T01:05:54.688Z,96415.47
2018-12-19T01:08:22.094Z,96421.13
2018-12-19T01:10:49.498Z,96421.63
2018-12-19T01:13:17.142Z,96413.67
2018-12-19T01:15:44.594Z,96420.38
2018-12-19T01:18:12.009Z,96420.38
2018-12-19T01:20:39.616Z,96425.02
2018-12-19T01:23:07.169Z,96421.77
2018-12-19T01:25:34.570Z,96412.42
2018-12-19T01:28:02.013Z,96424.28
2018-12-19T01:30:30.284Z,96425.36
2018-12-19T01:32:57.707Z,96423.58
2018-12-19T01:35:25.270Z,96428.69
2018-12-19T01:37:52.680Z,96422.75
2018-12-19T01:40:20.098Z,96423.67
2018-12-19T01:42:47.744Z,96423.96
2018-12-19T01:45:15.184Z,96427.03
2018-12-19T01:47:42.759Z,96427.22
2018-12-19T01:50:10.520Z,96437.05
2018-12-19T01:52:37.984Z,96432.67
2018-12-19T01:55:05.524Z,96436.22
2018-12-19T01:57:33.568Z,96431.46
2018-12-19T02:00:01.076Z,96428.42
2018-12-19T02:02:29.182Z,96434.35
2018-12-19T02:04:56.809Z,96436.95
2018-12-19T02:07:24.612Z,96439.08
2018-12-19T02:09:52.021Z,96427.77
2018-12-19T02:12:19.612Z,96414.56
2018-12-19T02:14:47.728Z,96421.44
2018-12-19T02:17:15.144Z,96420.49
2018-12-19T02:19:42.868Z,96416.32
2018-12-19T02:22:10.274Z,96417.97
2018-12-19T02:24:38.375Z,96416.11
2018-12-19T02:27:06.180Z,96421.95
2018-12-19T02:29:33.596Z,96425.66
2018-12-19T02:32:02.960Z,96422.37
2018-12-19T02:34:30.687Z,96423.30
2018-12-19T02:36:58.255Z,96398.29
2018-12-19T02:39:26.251Z,96404.86
2018-12-19T02:41:53.719Z,96401.50
2018-12-19T02:44:21.108Z,96403.63
2018-12-19T02:46:48.512Z,96393.70
2018-12-19T02:49:16.049Z,96407.05
2018-12-19T02:51:43.457Z,96389.33
2018-12-19T02:54:10.956Z,96379.02
2018-12-19T02:56:38.823Z,96376.42
2018-12-19T02:59:06.238Z,96370.91
2018-12-19T03:01:33.924Z,96369.16
2018-12-19T03:04:01.400Z,96363.73
2018-12-19T03:06:28.907Z,96374.20
2018-12-19T03:08:57.001Z,96372.90
2018-12-19T03:11:24.484Z,96372.81
2018-12-19T03:13:52.751Z,96367.98
2018-12-19T03:16:20.632Z,96363.61
2018-12-19T03:18:48.065Z,96358.98
2018-12-19T03:21:15.541Z,96345.97
2018-12-19T03:23:43.027Z,96337.80
2018-12-19T03:26:10.559Z,96334.37
2018-12-19T03:28:37.969Z,96331.67
2018-12-19T03:31:05.387Z,96335.92
2018-12-19T03:33:33.136Z,96326.97
2018-12-19T03:36:00.836Z,96329.18
2018-12-19T03:38:28.245Z,96334.41
2018-12-19T03:40:55.911Z,96341.44
2018-12-19T03:43:23.339Z,96338.17
2018-12-19T03:45:50.819Z,96355.13
2018-12-19T03:48:24.127Z,96374.70
2018-12-19T03:50:51.513Z,96367.67
2018-12-19T03:53:18.915Z,96375.41
2018-12-19T03:55:46.694Z,96386.67
2018-12-19T03:58:14.580Z,96395.92
2018-12-19T04:00:41.983Z,96404.32
2018-12-19T04:03:09.452Z,96427.39
2018-12-19T04:05:36.924Z,96434.50
2018-12-19T04:08:04.340Z,96455.56
2018-12-19T04:10:31.948Z,96484.38
2018-12-19T04:12:59.396Z,96498.69
2018-12-19T04:15:26.816Z,96489.80
2018-12-19T04:17:54.274Z,96480.89
2018-12-19T04:20:21.694Z,96478.27
2018-12-19T04:22:49.204Z,96484.58
2018-12-19T04:25:16.694Z,96483.98
2018-12-19T04:27:44.189Z,96496.06
2018-12-19T04:30:12.799Z,96506.72
2018-12-19T04:32:40.904Z,96509.87
2018-12-19T04:35:08.315Z,96509.27
2018-12-19T04:37:35.719Z,96501.85
2018-12-19T04:40:05.792Z,96517.97
2018-12-19T04:42:33.879Z,96511.64
2018-12-19T04:45:01.405Z,96511.85
2018-12-19T04:47:29.023Z,96505.45
2018-12-19T04:49:56.430Z,96508.87
2018-12-19T04:52:24.321Z,96508.44
2018-12-19T04:54:52.004Z,96498.44
2018-12-19T04:57:19.466Z,96501.21
2018-12-19T04:59:46.872Z,96495.11
2018-12-19T05:02:14.637Z,96492.69
2018-12-19T05:04:42.148Z,96495.20
2018-12-19T05:07:09.857Z,96489.44
2018-12-19T05:09:37.559Z,96468.87
2018-12-19T05:12:05.239Z,96466.27
2018-12-19T05:14:33.007Z,96458.17
2018-12-19T05:17:00.551Z,96463.70
2018-12-19T05:19:28.263Z,96449.31
2018-12-19T05:21:55.663Z,96459.86
2018-12-19T05:24:23.102Z,96458.80
2018-12-19T05:26:51.429Z,96455.13
2018-12-19T05:29:18.832Z,96450.64
2018-12-19T05:31:46.415Z,96444.46
2018-12-19T05:34:13.831Z,96441.06
2018-12-19T05:36:41.339Z,96433.23
2018-12-19T05:39:09.108Z,96439.55
2018-12-19T05:41:37.452Z,96438.97
2018-12-19T05:44:04.847Z,96443.50
2018-12-19T05:46:32.662Z,96435.03
2018-12-19T05:49:00.105Z,96444.64
2018-12-19T05:51:27.507Z,96431.44
2018-12-19T05:53:55.847Z,96428.16
2018-12-19T05:56:23.252Z,96431.75
2018-12-19T05:58:50.663Z,96430.25
2018-12-19T06:01:18.264Z,96431.22
2018-12-19T06:03:45.664Z,96430.27
2018-12-19T06:06:13.067Z,96421.91
2018-12-19T06:08:40.624Z,96417.78
2018-12-19T06:11:08.023Z,96424.09
2018-12-19T06:13:35.423Z,96410.50
2018-12-19T06:16:02.947Z,96418.08
2018-12-19T06:18:30.348Z,96419.66
2018-12-19T06:20:58.640Z,96415.42
2018-12-19T06:23:26.187Z,96416.15
2018-12-19T06:25:53.600Z,96425.99
2018-12-19T06:28:21.108Z,96440.59
2018-12-19T06:30:48.668Z,96438.58
2018-12-19T06:33:16.075Z,96433.75
2018-12-19T06:35:44.443Z,96429.75
2018-12-19T06:38:12.030Z,96436.25
2018-12-19T06:40:39.427Z,96426.77
2018-12-19T06:43:07.216Z,96426.03
2018-12-19T06:45:34.964Z,96437.76
2018-12-19T06:48:02.555Z,96440.27
2018-12-19T06:50:30.055Z,96439.20
2018-12-19T06:52:57.726Z,96444.80
2018-12-19T06:55:25.304Z,96443.39
2018-12-19T06:57:52.715Z,96445.87
2018-12-19T07:00:20.393Z,96444.12
2018-12-19T07:02:47.795Z,96447.17
2018-12-19T07:05:15.214Z,96453.23
2018-12-19T07:07:42.659Z,96454.64
2018-12-19T07:10:10.065Z,96458.64
2018-12-19T07:12:37.716Z,96469.64
2018-12-19T07:15:05.399Z,96466.56
2018-12-19T07:17:32.826Z,96467.86
2018-12-19T07:20:00.228Z,96471.67
2018-12-19T07:22:28.016Z,96467.76
2018-12-19T07:24:56.023Z,96477.61
2018-12-19T07:27:23.420Z,96473.70
2018-12-19T07:29:51.216Z,96476.20
2018-12-19T07:32:18.620Z,96488.84
2018-12-19T07:34:46.704Z,96493.71
2018-12-19T07:37:14.296Z,96493.23
2018-12-19T07:39:42.748Z,96505.20
2018-12-19T07:42:10.156Z,96500.72
2018-12-19T07:44:37.804Z,96506.56
2018-12-19T07:47:05.506Z,96499.37
2018-12-19T07:49:32.934Z,96500.67
2018-12-19T07:52:00.624Z,96513.59
2018-12-19T07:54:28.022Z,96509.02
2018-12-19T07:56:55.428Z,96506.18
2018-12-19T07:59:22.948Z,96511.19
2018-12-19T08:01:50.344Z,96506.80
2018-12-19T08:04:18.112Z,96509.55
2018-12-19T08:06:45.723Z,96504.14
2018-12-19T08:09:13.134Z,96519.92
2018-12-19T08:11:40.531Z,96514.38
2018-12-19T08:14:08.204Z,96511.38
2018-12-19T08:16:35.707Z,96508.53
2018-12-19T08:19:03.179Z,96514.02
2018-12-19T08:21:30.633Z,96513.44
2018-12-19T08:23:58.761Z,96510.12
2018-12-19T08:26:26.459Z,96504.22
2018-12-19T08:28:53.913Z,96501.89
2018-12-19T08:31:21.303Z,96505.94
2018-12-19T08:33:48.707Z,96501.80
2018-12-19T08:36:16.333Z,96505.84
2018-12-19T08:38:44.462Z,96510.85
2018-12-19T08:41:11.855Z,96515.01
2018-12-19T08:43:39.428Z,96508.77
2018-12-19T08:46:06.855Z,96514.22
2018-12-19T08:48:34.254Z,96510.69
2018-12-19T08:51:02.608Z,96523.25
2018-12-19T08:53:30.064Z,96518.13
2018-12-19T08:55:57.459Z,96524.41
2018-12-19T08:58:25.084Z,96519.30
2018-12-19T09:00:52.480Z,96521.08
2018-12-19T09:03:20.355Z,96528.09
2018-12-19T09:05:47.865Z,96519.33
2018-12-19T09:08:15.262Z,96525.62
2018-12-19T09:10:42.653Z,96521.98
2018-12-19T09:13:10.242Z,96517.00
2018-12-19T09:15:43.309Z,96526.37
2018-12-19T09:18:10.783Z,96527.95
2018-12-19T09:20:38.344Z,96526.98
2018-12-19T09:23:05.748Z,96525.20
2018-12-19T09:25:33.930Z,96521.66
2018-12-19T09:28:02.344Z,96517.75
2018-12-19T09:30:29.806Z,96528.08
2018-12-19T09:32:57.811Z,96529.28
2018-12-19T09:35:25.437Z,96521.22
2018-12-19T09:37:52.860Z,96522.92
2018-12-19T09:40:20.259Z,96515.68
2018-12-19T09:42:48.071Z,96518.90
2018-12-19T09:45:15.474Z,96515.70
2018-12-19T09:47:42.863Z,96521.89
2018-12-19T09:50:10.888Z,96519.27
2018-12-19T09:52:39.210Z,96503.37
2018-12-19T09:55:06.599Z,96501.27
2018-12-19T09:57:34.286Z,96514.11
2018-12-19T10:00:01.679Z,96516.13
2018-12-19T10:02:29.072Z,96504.99
2018-12-19T10:04:56.658Z,96500.11
2018-12-19T10:07:24.114Z,96511.27
2018-12-19T10:09:51.800Z,96513.67
2018-12-19T10:12:19.539Z,96500.74
2018-12-19T10:14:46.939Z,96501.58
2018-12-19T10:17:14.360Z,96489.61
2018-12-19T10:19:42.226Z,96499.47
2018-12-19T10:22:09.674Z,96489.36
2018-12-19T10:24:42.567Z,96486.75
2018-12-19T10:27:12.034Z,96489.63
2018-12-19T10:29:39.599Z,96484.27
2018-12-19T10:32:07.291Z,96477.41
2018-12-19T10:34:34.838Z,96475.40
2018-12-19T10:37:02.997Z,96460.30
2018-12-19T10:39:30.389Z,96462.09
2018-12-19T10:41:57.931Z,96455.55
2018-12-19T10:44:25.375Z,96449.84
2018-12-19T10:46:52.795Z,96452.01
2018-12-19T10:49:21.329Z,96454.36
2018-12-19T10:51:48.721Z,96456.26
2018-12-19T10:54:16.167Z,96451.03
2018-12-19T10:56:43.689Z,96459.13
2018-12-19T10:59:11.083Z,96449.51
2018-12-19T11:01:38.493Z,96447.95
2018-12-19T11:04:06.072Z,96444.28
2018-12-19T11:06:34.175Z,96452.02
2018-12-19T11:09:01.875Z,96449.14
2018-12-19T11:11:32.278Z,96444.99
2018-12-19T11:13:59.005Z,96435.25
2018-12-19T11:16:26.400Z,96429.31
2018-12-19T11:18:53.987Z,96432.03
2018-12-19T11:21:21.433Z,96425.62
2018-12-19T11:23:48.909Z,96431.09
2018-12-19T11:26:16.455Z,96437.25
2018-12-19T11:28:43.852Z,96425.64
2018-12-19T11:31:11.257Z,96433.81
2018-12-19T11:33:39.031Z,96426.09
2018-12-19T11:36:06.627Z,96436.80
2018-12-19T11:38:34.221Z,96436.31
2018-12-19T11:41:02.835Z,96429.30
2018-12-19T11:43:30.516Z,96419.09
2018-12-19T11:45:58.099Z,96410.69
2018-12-19T11:48:25.719Z,96404.16
2018-12-19T11:50:53.107Z,96395.35
2018-12-19T11:53:20.514Z,96392.26
2018-12-19T11:55:48.194Z,96392.62
2018-12-19T11:58:16.367Z,96392.62
2018-12-19T12:00:43.759Z,96379.80
2018-12-19T12:03:11.379Z,96374.34
2018-12-19T12:05:38.776Z,96363.66
2018-12-19T12:08:06.175Z,96374.94
2018-12-19T12:10:33.751Z,96373.74
2018-12-19T12:13:01.151Z,96380.87
2018-12-19T12:15:28.553Z,96383.00
2018-12-19T12:17:56.067Z,96383.48
2018-12-19T12:20:23.572Z,96377.77
2018-12-19T12:22:50.971Z,96369.00
2018-12-19T12:25:18.393Z,96365.20
2018-12-19T12:27:46.400Z,96368.89
2018-12-19T12:30:13.784Z,96363.41
2018-12-19T12:32:41.380Z,96361.88
2018-12-19T12:35:08.903Z,96346.43
2018-12-19T12:37:36.924Z,96350.58
2018-12-19T12:40:07.229Z,96361.39
2018-12-19T12:42:34.684Z,96343.59
2018-12-19T12:45:02.440Z,96338.70
2018-12-19T12:47:30.098Z,96335.37
2018-12-19T12:49:57.697Z,96329.92
2018-12-19T12:52:25.102Z,96332.88
2018-12-19T12:54:52.684Z,96329.66
2018-12-19T12:57:20.290Z,96332.50
2018-12-19T12:59:47.691Z,96335.70
2018-12-19T13:02:15.256Z,96325.14
2018-12-19T13:04:42.657Z,96317.52
2018-12-19T13:07:10.043Z,96324.53
2018-12-19T13:09:37.736Z,96326.20
2018-12-19T13:12:05.156Z,96322.62
2018-12-19T13:14:32.625Z,96326.30
2018-12-19T13:17:00.428Z,96322.13
2018-12-19T13:19:28.624Z,96326.63
2018-12-19T13:21:56.016Z,96321.07
2018-12-19T13:24:23.576Z,96323.53
2018-12-19T13:26:50.960Z,96313.33
2018-12-19T13:29:18.357Z,96305.82
2018-12-19T13:31:46.148Z,96306.78
2018-12-19T13:34:14.158Z,96305.69
2018-12-19T13:36:41.852Z,96304.27
2018-12-19T13:39:09.544Z,96309.93
2018-12-19T13:41:36.947Z,96307.91
2018-12-19T13:44:04.612Z,96314.69
2018-12-19T13:46:32.327Z,96310.06
2018-12-19T13:48:59.728Z,96318.00
2018-12-19T13:51:27.128Z,96318.71
2018-12-19T13:53:54.724Z,96320.84
2018-12-19T13:56:22.128Z,96322.97
2018-12-19T13:58:49.887Z,96322.97
2018-12-19T14:01:17.503Z,96321.66
2018-12-19T14:03:44.907Z,96323.94
2018-12-19T14:06:12.302Z,96315.84
2018-12-19T14:08:40.773Z,96309.20
2018-12-19T14:11:08.167Z,96304.97
2018-12-19T14:13:35.565Z,96303.56
2018-12-19T14:16:03.160Z,96303.09
2018-12-19T14:18:30.551Z,96295.86
2018-12-19T14:20:57.957Z,96300.88
2018-12-19T14:23:25.426Z,96298.61
2018-12-19T14:25:52.828Z,96307.05
2018-12-19T14:28:20.223Z,96302.31
2018-12-19T14:30:47.667Z,96307.30
2018-12-19T14:33:15.067Z,96297.07
2018-12-19T14:35:42.534Z,96297.44
2018-12-19T14:38:10.077Z,96296.95
2018-12-19T14:40:39.315Z,96293.03
2018-12-19T14:43:06.725Z,96284.94
2018-12-19T14:45:34.412Z,96291.14
2018-12-19T14:48:01.813Z,96287.70
2018-12-19T14:50:29.208Z,96288.30
2018-12-19T14:52:56.973Z,96281.63
2018-12-19T14:55:24.582Z,96279.01
2018-12-19T14:57:51.985Z,96277.84
2018-12-19T15:00:19.738Z,96277.97
2018-12-19T15:02:47.138Z,96279.27
2018-12-19T15:05:14.531Z,96271.92
2018-12-19T15:07:42.221Z,96264.41
2018-12-19T15:10:09.741Z,96267.03
2018-12-19T15:12:37.525Z,96262.41
2018-12-19T15:15:07.202Z,96260.27
2018-12-19T15:17:34.677Z,96262.06
2018-12-19T15:20:02.077Z,96259.56
2018-12-19T15:22:29.517Z,96258.71
2018-12-19T15:24:56.923Z,96258.16
2018-12-19T15:27:24.383Z,96257.45
2018-12-19T15:29:51.814Z,96255.41
2018-12-19T15:32:19.220Z,96261.13
2018-12-19T15:34:47.328Z,96252.46
2018-12-19T15:37:14.963Z,96249.36
2018-12-19T15:39:42.445Z,96251.64
2018-12-19T15:42:09.827Z,96256.72
2018-12-19T15:44:37.343Z,96253.65
2018-12-19T15:47:04.739Z,96250.67
2018-12-19T15:49:32.135Z,96241.19
2018-12-19T15:51:59.716Z,96238.09
2018-12-19T15:54:27.117Z,96237.27
2018-12-19T15:56:54.529Z,96227.75
2018-12-19T15:59:22.081Z,96217.42
2018-12-19T16:01:49.485Z,96207.12
2018-12-19T16:04:16.886Z,96209.58
2018-12-19T16:06:44.674Z,96197.00
2018-12-19T16:09:12.061Z,96201.89
2018-12-19T16:11:40.345Z,96203.31
2018-12-19T16:14:07.856Z,96190.73
2018-12-19T16:16:35.250Z,96184.54
2018-12-19T16:19:02.651Z,96180.50
2018-12-19T16:21:30.449Z,96173.15
2018-12-19T16:23:58.777Z,96178.38
2018-12-19T16:26:26.169Z,96178.49
2018-12-19T16:28:53.664Z,96175.18
2018-12-19T16:31:21.059Z,96171.86
2018-12-19T16:33:48.486Z,96167.58
2018-12-19T16:36:16.219Z,96166.39
2018-12-19T16:38:43.623Z,96168.78
2018-12-19T16:41:11.027Z,96174.95
2018-12-19T16:43:38.768Z,96173.55
2018-12-19T16:46:06.287Z,96171.21
2018-12-19T16:48:33.757Z,96170.86
2018-12-19T16:51:01.197Z,96162.47
2018-12-19T16:53:28.600Z,96174.67
2018-12-19T16:55:56.803Z,96187.39
2018-12-19T16:58:24.327Z,96193.66
2018-12-19T17:00:51.741Z,96199.15
2018-12-19T17:03:19.333Z,96198.92
2018-12-19T17:05:47.184Z,96193.70
2018-12-19T17:08:14.579Z,96195.72
2018-12-19T17:10:42.019Z,96198.78
2018-12-19T17:13:09.582Z,96209.23
2018-12-19T17:15:37.367Z,96224.30
2018-12-19T17:18:04.755Z,96227.75
2018-12-19T17:20:33.302Z,96227.50
2018-12-19T17:23:00.968Z,96225.48
2018-12-19T17:25:28.365Z,96225.25
2018-12-19T17:27:56.115Z,96223.94
2018-12-19T17:30:23.511Z,96230.80
2018-12-19T17:32:50.921Z,96224.27
2018-12-19T17:35:18.633Z,96223.34
2018-12-19T17:37:46.215Z,96218.45
2018-12-19T17:40:13.625Z,96217.15
2018-12-19T17:42:41.075Z,96211.47
2018-12-19T17:45:08.474Z,96204.58
2018-12-19T17:47:36.475Z,96203.27
2018-12-19T17:50:05.458Z,96195.09
2018-12-19T17:52:32.842Z,96194.61
2018-12-19T17:55:00.246Z,96191.63
2018-12-19T17:57:27.700Z,96196.86
2018-12-19T17:59:55.122Z,96189.50
2018-12-19T18:02:22.988Z,96186.41
2018-12-19T18:04:50.589Z,96181.78
2018-12-19T18:07:18.358Z,96176.23
2018-12-19T18:09:45.936Z,96163.41
2018-12-19T18:12:13.360Z,96155.34
2018-12-19T18:14:40.828Z,96152.48
2018-12-19T18:17:08.616Z,96139.93
2018-12-19T18:19:36.134Z,96123.45
2018-12-19T18:22:03.546Z,96131.67
2018-12-19T18:24:30.941Z,96144.13
2018-12-19T18:26:58.388Z,96144.84
2018-12-19T18:29:25.793Z,96149.84
2018-12-19T18:31:53.284Z,96149.73
2018-12-19T18:34:20.986Z,96157.30
2018-12-19T18:36:49.352Z,96155.30
2018-12-19T18:39:16.821Z,96156.27
2018-12-19T18:41:44.523Z,96143.45
2018-12-19T18:44:11.947Z,96126.26
2018-12-19T18:46:39.333Z,96121.98
2018-12-19T18:49:06.847Z,96120.67
2018-12-19T18:51:34.315Z,96131.70
2018-12-19T18:54:02.607Z,96145.23
2018-12-19T18:56:30.317Z,96143.70
2018-12-19T18:58:57.772Z,96149.86
2018-12-19T19:01:25.261Z,96147.62
2018-12-19T19:03:52.826Z,96138.13
2018-12-19T19:06:20.273Z,96142.63
2018-12-19T19:08:47.762Z,96140.95
2018-12-19T19:11:15.604Z,96136.11
2018-12-19T19:13:44.042Z,96123.55
2018-12-19T19:16:11.544Z,96137.53
2018-12-19T19:18:38.991Z,96145.13
2018-12-19T19:21:06.623Z,96137.41
2018-12-19T19:23:34.033Z,96140.73
2018-12-19T19:26:01.676Z,96130.52
2018-12-19T19:28:29.092Z,96128.05
2018-12-19T19:30:56.485Z,96122.23
2018-12-19T19:33:24.240Z,96127.09
2018-12-19T19:35:51.957Z,96125.89
2018-12-19T19:38:19.460Z,96134.69
2018-12-19T19:40:46.978Z,96146.88
2018-12-19T19:43:14.372Z,96151.16
2018-12-19T19:45:41.784Z,96152.36
2018-12-19T19:48:09.600Z,96156.50
2018-12-19T19:50:37.261Z,96146.77
2018-12-19T19:53:04.730Z,96148.44
2018-12-19T19:55:32.281Z,96155.19
2018-12-19T19:57:59.711Z,96151.50
2018-12-19T20:00:28.668Z,96152.58
2018-12-19T20:02:56.201Z,96160.63
2018-12-19T20:05:23.592Z,96163.49
2018-12-19T20:07:51.013Z,96170.58
2018-12-19T20:10:18.511Z,96178.77
2018-12-19T20:12:45.934Z,96180.08
2018-12-19T20:15:13.845Z,96183.17
2018-12-19T20:17:41.720Z,96181.38
2018-12-19T20:20:09.108Z,96179.48
2018-12-19T20:22:36.505Z,96182.46
2018-12-19T20:25:04.388Z,96175.45
2018-12-19T20:27:31.868Z,96181.38
2018-12-19T20:29:59.317Z,96174.73
2018-12-19T20:32:27.048Z,96183.73
2018-12-19T20:34:54.447Z,96177.58
2018-12-19T20:37:21.886Z,96176.15
2018-12-19T20:39:49.468Z,96183.16
2018-12-19T20:42:16.864Z,96184.92
2018-12-19T20:44:44.328Z,96184.80
2018-12-19T20:47:11.748Z,96187.41
2018-12-19T20:49:39.148Z,96188.72
2018-12-19T20:52:06.563Z,96191.81
2018-12-19T20:54:34.120Z,96182.67
2018-12-19T20:57:01.618Z,96181.60
2018-12-19T20:59:29.566Z,96177.09
2018-12-19T21:01:57.302Z,96172.62
2018-12-19T21:04:24.767Z,96170.23
2018-12-19T21:06:52.173Z,96162.04
2018-12-19T21:09:19.858Z,96168.11
2018-12-19T21:11:47.252Z,96165.95
2018-12-19T21:14:15.115Z,96168.94
2018-12-19T21:16:48.388Z,96165.73
2018-12-19T21:19:15.842Z,96163.50
2018-12-19T21:21:43.765Z,96160.06
2018-12-19T21:24:11.272Z,96154.97
2018-12-19T21:26:38.685Z,96154.59
2018-12-19T21:29:06.089Z,96160.63
2018-12-19T21:31:33.529Z,96165.03
2018-12-19T21:34:01.023Z,96154.95
2018-12-19T21:36:28.419Z,96155.99
2018-12-19T21:38:56.230Z,96154.08
2018-12-19T21:41:23.623Z,96162.38
2018-12-19T21:43:53.881Z,96159.87
2018-12-19T21:46:20.761Z,96155.09
2018-12-19T21:48:48.502Z,96151.77
2018-12-19T21:51:16.085Z,96151.27
2018-12-19T21:53:43.546Z,96163.61
2018-12-19T21:56:10.939Z,96161.70
2018-12-19T21:58:38.687Z,96169.53
2018-12-19T22:01:06.306Z,96175.84
2018-12-19T22:03:33.797Z,96184.77
2018-12-19T22:06:01.687Z,96190.11
2018-12-19T22:08:29.367Z,96198.67
2018-12-19T22:10:57.189Z,96203.20
2018-12-19T22:13:24.750Z,96195.86
2018-12-19T22:15:52.270Z,96196.71
2018-12-19T22:21:29.574Z,96191.45
2018-12-19T22:23:56.986Z,96205.69
2018-12-19T22:26:24.467Z,96191.10
2018-12-19T22:28:52.085Z,96178.05
2018-12-19T22:31:19.610Z,96184.91
2018-12-19T22:33:47.208Z,96179.78
2018-12-19T22:36:14.950Z,96185.73
2018-12-19T22:38:42.551Z,96195.34
2018-12-19T22:41:09.948Z,96188.48
2018-12-19T22:43:37.503Z,96190.99
2018-12-19T22:46:05.008Z,96204.27
2018-12-19T22:48:32.629Z,96196.56
2018-12-19T22:51:00.398Z,96206.41
2018-12-19T22:53:27.901Z,96201.56
2018-12-19T22:55:55.412Z,96208.45
2018-12-19T22:58:22.933Z,96205.14
2018-12-19T23:00:56.361Z,96212.48
2018-12-19T23:03:25.990Z,96217.20
2018-12-19T23:05:53.403Z,96223.02
2018-12-19T23:08:21.512Z,96223.27
2018-12-19T23:10:49.500Z,96219.70
2018-12-19T23:13:17.109Z,96228.13
2018-12-19T23:15:44.544Z,96229.31
2018-12-19T23:18:17.832Z,96230.14
2018-12-19T23:20:45.436Z,96236.66
2018-12-19T23:23:12.925Z,96232.03
2018-12-19T23:25:40.518Z,96242.47
2018-12-19T23:28:07.966Z,96244.25
2018-12-19T23:30:35.477Z,96250.66
2018-12-19T23:33:03.415Z,96249.70
2018-12-19T23:35:31.155Z,96251.27
2018-12-19T23:37:58.968Z,96247.70
2018-12-19T23:40:26.725Z,96249.37
2018-12-19T23:42:55.270Z,96244.86
2018-12-19T23:45:22.968Z,96251.00
2018-12-19T23:47:50.600Z,96243.18
2018-12-19T23:50:17.989Z,96239.98
2018-12-19T23:52:45.433Z,96233.00
2018-12-19T23:55:13.120Z,96231.81
2018-12-19T23:57:40.717Z,96234.88
